sensor_id;sensor_type;location;lat;lon;timestamp;pressure;altitude;pressure_sealevel;temperature;humidity
65175;BME280;51761;42.126;24.752;2023-06-10T00:00:37;99041.97;;;19.73;85.13
65175;BME280;51761;42.126;24.752;2023-06-10T00:03:03;99021.78;;;19.65;85.10
65175;BME280;51761;42.126;24.752;2023-06-10T00:05:28;99048.16;;;19.71;85.75
65175;BME280;51761;42.126;24.752;2023-06-10T00:07:55;99044.03;;;19.72;85.42
65175;BME280;51761;42.126;24.752;2023-06-10T00:10:22;99043.25;;;19.72;85.31
65175;BME280;51761;42.126;24.752;2023-06-10T00:12:47;99055.56;;;19.69;85.22
65175;BME280;51761;42.126;24.752;2023-06-10T00:15:13;99045.53;;;19.68;85.37
65175;BME280;51761;42.126;24.752;2023-06-10T00:17:38;99050.63;;;19.64;85.14
65175;BME280;51761;42.126;24.752;2023-06-10T00:20:07;99047.00;;;19.63;84.37
65175;BME280;51761;42.126;24.752;2023-06-10T00:22:34;99040.41;;;19.72;83.56
65175;BME280;51761;42.126;24.752;2023-06-10T00:25:00;99044.59;;;19.76;83.29
65175;BME280;51761;42.126;24.752;2023-06-10T00:27:25;99027.91;;;19.58;84.39
65175;BME280;51761;42.126;24.752;2023-06-10T00:29:56;99041.63;;;19.65;84.38
65175;BME280;51761;42.126;24.752;2023-06-10T00:32:22;99040.63;;;19.68;84.07
65175;BME280;51761;42.126;24.752;2023-06-10T00:34:47;99038.38;;;19.72;83.69
65175;BME280;51761;42.126;24.752;2023-06-10T00:37:13;99042.13;;;19.64;84.07
65175;BME280;51761;42.126;24.752;2023-06-10T00:39:39;99049.34;;;19.65;84.25
65175;BME280;51761;42.126;24.752;2023-06-10T00:42:04;99036.19;;;19.62;84.87
65175;BME280;51761;42.126;24.752;2023-06-10T00:44:32;99035.91;;;19.60;84.42
65175;BME280;51761;42.126;24.752;2023-06-10T00:46:58;99024.09;;;19.41;84.76
65175;BME280;51761;42.126;24.752;2023-06-10T00:49:23;99014.53;;;19.39;84.38
65175;BME280;51761;42.126;24.752;2023-06-10T00:51:51;99036.00;;;19.45;85.05
65175;BME280;51761;42.126;24.752;2023-06-10T00:54:17;99045.09;;;19.55;85.08
65175;BME280;51761;42.126;24.752;2023-06-10T00:56:43;99044.22;;;19.43;85.58
65175;BME280;51761;42.126;24.752;2023-06-10T00:59:09;99036.19;;;19.42;85.81
65175;BME280;51761;42.126;24.752;2023-06-10T01:01:35;99027.63;;;19.36;85.17
65175;BME280;51761;42.126;24.752;2023-06-10T01:04:03;99028.50;;;19.42;84.82
65175;BME280;51761;42.126;24.752;2023-06-10T01:11:57;99044.56;;;19.31;86.15
65175;BME280;51761;42.126;24.752;2023-06-10T01:14:24;99027.19;;;19.04;86.28
65175;BME280;51761;42.126;24.752;2023-06-10T01:16:50;99039.75;;;19.17;86.01
65175;BME280;51761;42.126;24.752;2023-06-10T01:19:17;99049.88;;;19.23;85.91
65175;BME280;51761;42.126;24.752;2023-06-10T01:21:43;99044.22;;;19.23;85.60
65175;BME280;51761;42.126;24.752;2023-06-10T01:24:14;99047.13;;;19.29;85.39
65175;BME280;51761;42.126;24.752;2023-06-10T01:26:44;99041.75;;;19.31;85.25
65175;BME280;51761;42.126;24.752;2023-06-10T01:29:14;99044.56;;;19.31;84.84
65175;BME280;51761;42.126;24.752;2023-06-10T01:32:01;99051.28;;;19.33;85.31
65175;BME280;51761;42.126;24.752;2023-06-10T01:34:31;99051.16;;;19.23;85.84
65175;BME280;51761;42.126;24.752;2023-06-10T01:36:58;99027.41;;;19.00;86.46
65175;BME280;51761;42.126;24.752;2023-06-10T01:39:24;99050.19;;;19.11;86.43
65175;BME280;51761;42.126;24.752;2023-06-10T01:41:52;99057.84;;;19.25;86.40
65175;BME280;51761;42.126;24.752;2023-06-10T01:44:21;99054.03;;;19.28;85.70
65175;BME280;51761;42.126;24.752;2023-06-10T01:46:47;99034.31;;;18.99;86.31
65175;BME280;51761;42.126;24.752;2023-06-10T01:49:13;99043.16;;;19.07;86.83
65175;BME280;51761;42.126;24.752;2023-06-10T01:51:39;99050.19;;;19.11;86.47
65175;BME280;51761;42.126;24.752;2023-06-10T01:54:04;99038.88;;;19.11;86.49
65175;BME280;51761;42.126;24.752;2023-06-10T01:56:31;99027.53;;;19.11;86.08
65175;BME280;51761;42.126;24.752;2023-06-10T01:58:57;99051.16;;;19.23;86.13
65175;BME280;51761;42.126;24.752;2023-06-10T02:01:28;99064.34;;;19.11;86.79
65175;BME280;51761;42.126;24.752;2023-06-10T02:03:53;99061.38;;;19.00;87.05
65175;BME280;51761;42.126;24.752;2023-06-10T02:06:19;99041.50;;;18.80;87.11
65175;BME280;51761;42.126;24.752;2023-06-10T02:08:44;99041.88;;;18.88;87.06
65175;BME280;51761;42.126;24.752;2023-06-10T02:11:10;99034.31;;;18.79;87.08
65175;BME280;51761;42.126;24.752;2023-06-10T02:13:35;99053.97;;;18.88;87.18
65175;BME280;51761;42.126;24.752;2023-06-10T02:16:01;99014.81;;;18.67;86.77
65175;BME280;51761;42.126;24.752;2023-06-10T02:18:27;99063.03;;;18.92;86.66
65175;BME280;51761;42.126;24.752;2023-06-10T02:20:53;99050.66;;;18.90;86.74
65175;BME280;51761;42.126;24.752;2023-06-10T02:23:19;99061.19;;;18.89;86.83
65175;BME280;51761;42.126;24.752;2023-06-10T02:25:45;99058.50;;;18.80;86.72
65175;BME280;51761;42.126;24.752;2023-06-10T02:28:10;99041.16;;;18.58;86.82
65175;BME280;51761;42.126;24.752;2023-06-10T02:30:39;99059.38;;;18.72;86.46
65175;BME280;51761;42.126;24.752;2023-06-10T02:33:06;99059.50;;;18.63;87.08
65175;BME280;51761;42.126;24.752;2023-06-10T02:35:35;99061.25;;;18.60;86.81
65175;BME280;51761;42.126;24.752;2023-06-10T02:38:02;99034.38;;;18.36;87.13
65175;BME280;51761;42.126;24.752;2023-06-10T02:40:27;99059.72;;;18.45;88.05
65175;BME280;51761;42.126;24.752;2023-06-10T02:42:53;99068.91;;;18.40;88.74
65175;BME280;51761;42.126;24.752;2023-06-10T02:45:18;99069.66;;;18.40;88.85
65175;BME280;51761;42.126;24.752;2023-06-10T02:47:44;99055.16;;;18.47;88.62
65175;BME280;51761;42.126;24.752;2023-06-10T02:50:10;99040.63;;;18.40;88.53
65175;BME280;51761;42.126;24.752;2023-06-10T02:52:35;99070.78;;;18.77;87.55
65175;BME280;51761;42.126;24.752;2023-06-10T02:55:01;99064.84;;;18.75;87.24
65175;BME280;51761;42.126;24.752;2023-06-10T02:57:26;99067.25;;;18.82;87.09
65175;BME280;51761;42.126;24.752;2023-06-10T02:59:52;99050.00;;;18.80;86.49
65175;BME280;51761;42.126;24.752;2023-06-10T03:02:18;99065.09;;;18.92;86.56
65175;BME280;51761;42.126;24.752;2023-06-10T03:04:44;99081.50;;;18.88;86.83
65175;BME280;51761;42.126;24.752;2023-06-10T03:07:10;99072.94;;;18.68;87.98
65175;BME280;51761;42.126;24.752;2023-06-10T03:09:36;99074.13;;;18.61;88.94
65175;BME280;51761;42.126;24.752;2023-06-10T03:12:02;99077.78;;;18.82;87.88
65175;BME280;51761;42.126;24.752;2023-06-10T03:14:27;99090.16;;;18.99;87.22
65175;BME280;51761;42.126;24.752;2023-06-10T03:16:53;99084.00;;;19.00;86.75
65175;BME280;51761;42.126;24.752;2023-06-10T03:19:18;99089.47;;;18.89;87.72
65175;BME280;51761;42.126;24.752;2023-06-10T03:21:49;99082.69;;;18.81;88.60
65175;BME280;51761;42.126;24.752;2023-06-10T03:24:15;99082.69;;;18.81;88.77
65175;BME280;51761;42.126;24.752;2023-06-10T03:26:41;99086.06;;;18.85;88.70
65175;BME280;51761;42.126;24.752;2023-06-10T03:29:07;99084.91;;;19.12;87.84
65175;BME280;51761;42.126;24.752;2023-06-10T03:31:33;99082.41;;;18.99;88.06
65175;BME280;51761;42.126;24.752;2023-06-10T03:34:00;99084.19;;;18.97;88.45
65175;BME280;51761;42.126;24.752;2023-06-10T03:36:25;99089.44;;;19.04;88.40
65175;BME280;51761;42.126;24.752;2023-06-10T03:38:54;99086.41;;;19.07;87.47
65175;BME280;51761;42.126;24.752;2023-06-10T03:41:22;99079.94;;;19.21;85.31
65175;BME280;51761;42.126;24.752;2023-06-10T03:43:48;99069.88;;;19.20;84.50
65175;BME280;51761;42.126;24.752;2023-06-10T03:46:13;99082.50;;;19.39;83.92
65175;BME280;51761;42.126;24.752;2023-06-10T03:48:39;99084.91;;;19.46;83.36
65175;BME280;51761;42.126;24.752;2023-06-10T03:51:04;99081.78;;;19.44;83.22
65175;BME280;51761;42.126;24.752;2023-06-10T03:53:30;99103.31;;;19.56;82.16
65175;BME280;51761;42.126;24.752;2023-06-10T03:55:56;99074.84;;;19.45;82.00
65175;BME280;51761;42.126;24.752;2023-06-10T03:58:22;99093.97;;;19.50;82.41
65175;BME280;51761;42.126;24.752;2023-06-10T04:00:48;99048.88;;;19.26;82.12
65175;BME280;51761;42.126;24.752;2023-06-10T04:03:14;99080.78;;;19.47;81.39
65175;BME280;51761;42.126;24.752;2023-06-10T04:05:41;99088.31;;;19.50;81.23
65175;BME280;51761;42.126;24.752;2023-06-10T04:08:07;99091.13;;;19.50;81.34
65175;BME280;51761;42.126;24.752;2023-06-10T04:10:33;99087.75;;;19.46;81.33
65175;BME280;51761;42.126;24.752;2023-06-10T04:12:59;99087.66;;;19.40;81.41
65175;BME280;51761;42.126;24.752;2023-06-10T04:15:25;99093.41;;;19.46;81.52
65175;BME280;51761;42.126;24.752;2023-06-10T04:17:50;99084.47;;;19.53;80.75
65175;BME280;51761;42.126;24.752;2023-06-10T04:20:16;99088.88;;;19.54;80.75
65175;BME280;51761;42.126;24.752;2023-06-10T04:22:41;99062.75;;;19.44;80.79
65175;BME280;51761;42.126;24.752;2023-06-10T04:25:09;99083.47;;;19.56;80.93
65175;BME280;51761;42.126;24.752;2023-06-10T04:27:34;99070.53;;;19.49;81.03
65175;BME280;51761;42.126;24.752;2023-06-10T04:30:00;99077.13;;;19.61;80.40
65175;BME280;51761;42.126;24.752;2023-06-10T04:32:26;99075.13;;;19.67;80.22
65175;BME280;51761;42.126;24.752;2023-06-10T04:34:51;99084.66;;;19.69;80.54
65175;BME280;51761;42.126;24.752;2023-06-10T04:37:17;99082.63;;;19.70;80.56
65175;BME280;51761;42.126;24.752;2023-06-10T04:39:43;99083.53;;;19.81;82.26
65175;BME280;51761;42.126;24.752;2023-06-10T04:42:08;99064.53;;;19.87;80.40
65175;BME280;51761;42.126;24.752;2023-06-10T04:44:34;99089.59;;;20.14;83.74
65175;BME280;51761;42.126;24.752;2023-06-10T04:46:59;99077.31;;;20.23;82.78
65175;BME280;51761;42.126;24.752;2023-06-10T04:49:25;99081.06;;;20.40;79.29
65175;BME280;51761;42.126;24.752;2023-06-10T04:51:50;99058.09;;;20.38;77.78
65175;BME280;51761;42.126;24.752;2023-06-10T04:54:16;99074.50;;;20.54;77.36
65175;BME280;51761;42.126;24.752;2023-06-10T04:56:42;99066.03;;;20.59;77.07
65175;BME280;51761;42.126;24.752;2023-06-10T04:59:07;99083.94;;;20.71;77.82
65175;BME280;51761;42.126;24.752;2023-06-10T05:01:33;99077.78;;;20.78;77.63
65175;BME280;51761;42.126;24.752;2023-06-10T05:03:58;99080.72;;;20.88;78.29
65175;BME280;51761;42.126;24.752;2023-06-10T05:06:24;99081.84;;;21.02;80.62
65175;BME280;51761;42.126;24.752;2023-06-10T05:08:49;99084.03;;;21.23;77.16
65175;BME280;51761;42.126;24.752;2023-06-10T05:11:15;99091.63;;;21.37;76.05
65175;BME280;51761;42.126;24.752;2023-06-10T05:13:41;99070.69;;;21.35;75.71
65175;BME280;51761;42.126;24.752;2023-06-10T05:16:08;99060.41;;;21.43;77.34
65175;BME280;51761;42.126;24.752;2023-06-10T05:18:34;99080.19;;;21.79;81.14
65175;BME280;51761;42.126;24.752;2023-06-10T05:21:01;99078.72;;;22.00;78.95
65175;BME280;51761;42.126;24.752;2023-06-10T05:23:26;99050.56;;;22.13;75.47
65175;BME280;51761;42.126;24.752;2023-06-10T05:25:52;99073.13;;;22.39;73.30
65175;BME280;51761;42.126;24.752;2023-06-10T05:28:17;99080.13;;;22.43;72.82
65175;BME280;51761;42.126;24.752;2023-06-10T05:30:43;99055.53;;;22.51;71.80
65175;BME280;51761;42.126;24.752;2023-06-10T05:33:09;99067.44;;;22.60;71.40
65175;BME280;51761;42.126;24.752;2023-06-10T05:35:34;99067.19;;;22.75;69.64
65175;BME280;51761;42.126;24.752;2023-06-10T05:37:59;99070.53;;;22.79;70.73
65175;BME280;51761;42.126;24.752;2023-06-10T05:40:25;99070.78;;;23.14;69.29
65175;BME280;51761;42.126;24.752;2023-06-10T05:42:50;99081.88;;;23.28;68.26
65175;BME280;51761;42.126;24.752;2023-06-10T05:45:16;99075.88;;;23.43;67.83
65175;BME280;51761;42.126;24.752;2023-06-10T05:47:42;99068.13;;;23.38;68.52
65175;BME280;51761;42.126;24.752;2023-06-10T05:50:07;99089.25;;;23.70;70.91
65175;BME280;51761;42.126;24.752;2023-06-10T05:52:35;99077.84;;;23.70;66.88
65175;BME280;51761;42.126;24.752;2023-06-10T05:55:02;99080.63;;;23.81;68.08
65175;BME280;51761;42.126;24.752;2023-06-10T05:57:27;99091.78;;;23.79;66.62
65175;BME280;51761;42.126;24.752;2023-06-10T05:59:53;99075.53;;;23.63;65.31
65175;BME280;51761;42.126;24.752;2023-06-10T06:02:18;99091.59;;;23.66;65.53
65175;BME280;51761;42.126;24.752;2023-06-10T06:04:44;99099.09;;;23.63;66.52
65175;BME280;51761;42.126;24.752;2023-06-10T06:07:09;99095.94;;;23.78;64.99
65175;BME280;51761;42.126;24.752;2023-06-10T06:09:35;99108.84;;;23.95;65.14
65175;BME280;51761;42.126;24.752;2023-06-10T06:12:00;99109.56;;;24.07;65.57
65175;BME280;51761;42.126;24.752;2023-06-10T06:14:26;99107.78;;;24.04;64.73
65175;BME280;51761;42.126;24.752;2023-06-10T06:16:51;99113.34;;;24.25;64.69
65175;BME280;51761;42.126;24.752;2023-06-10T06:19:17;99109.19;;;24.26;61.55
65175;BME280;51761;42.126;24.752;2023-06-10T06:21:42;99110.00;;;24.27;62.93
65175;BME280;51761;42.126;24.752;2023-06-10T06:24:08;99103.75;;;24.23;63.25
65175;BME280;51761;42.126;24.752;2023-06-10T06:26:33;99096.34;;;24.09;63.50
65175;BME280;51761;42.126;24.752;2023-06-10T06:28:59;99101.78;;;24.13;62.53
65175;BME280;51761;42.126;24.752;2023-06-10T06:31:24;99082.16;;;23.93;64.52
65175;BME280;51761;42.126;24.752;2023-06-10T06:33:50;99098.69;;;24.05;64.33
65175;BME280;51761;42.126;24.752;2023-06-10T06:36:16;99099.94;;;24.15;63.47
65175;BME280;51761;42.126;24.752;2023-06-10T06:38:41;99087.28;;;24.11;63.04
65175;BME280;51761;42.126;24.752;2023-06-10T06:41:07;99086.94;;;24.20;64.17
65175;BME280;51761;42.126;24.752;2023-06-10T06:43:32;99087.91;;;24.27;63.51
65175;BME280;51761;42.126;24.752;2023-06-10T06:45:58;99087.81;;;24.44;60.64
65175;BME280;51761;42.126;24.752;2023-06-10T06:48:24;99079.34;;;24.68;61.66
65175;BME280;51761;42.126;24.752;2023-06-10T06:50:49;99090.63;;;24.84;61.38
65175;BME280;51761;42.126;24.752;2023-06-10T06:53:15;99075.59;;;25.08;59.46
65175;BME280;51761;42.126;24.752;2023-06-10T06:55:43;99090.81;;;25.69;58.75
65175;BME280;51761;42.126;24.752;2023-06-10T06:58:09;99075.38;;;26.14;56.22
65175;BME280;51761;42.126;24.752;2023-06-10T07:00:34;99076.69;;;26.32;55.23
65175;BME280;51761;42.126;24.752;2023-06-10T07:03:00;99048.69;;;26.25;55.86
65175;BME280;51761;42.126;24.752;2023-06-10T07:05:28;99055.88;;;26.50;54.00
65175;BME280;51761;42.126;24.752;2023-06-10T07:07:54;99070.72;;;26.67;55.25
65175;BME280;51761;42.126;24.752;2023-06-10T07:10:22;99074.66;;;26.64;54.83
65175;BME280;51761;42.126;24.752;2023-06-10T07:12:48;99071.03;;;26.45;55.42
65175;BME280;51761;42.126;24.752;2023-06-10T07:15:13;99063.16;;;26.51;56.39
65175;BME280;51761;42.126;24.752;2023-06-10T07:17:39;99057.75;;;26.47;55.94
65175;BME280;51761;42.126;24.752;2023-06-10T07:20:05;99061.56;;;26.68;56.47
65175;BME280;51761;42.126;24.752;2023-06-10T07:22:30;99060.47;;;26.71;55.87
65175;BME280;51761;42.126;24.752;2023-06-10T07:24:57;99059.06;;;26.78;55.60
65175;BME280;51761;42.126;24.752;2023-06-10T07:27:22;99057.72;;;26.66;56.62
65175;BME280;51761;42.126;24.752;2023-06-10T07:29:48;99055.31;;;27.14;54.53
65175;BME280;51761;42.126;24.752;2023-06-10T07:32:13;99031.16;;;27.10;55.05
65175;BME280;51761;42.126;24.752;2023-06-10T07:34:39;99051.34;;;27.17;54.06
65175;BME280;51761;42.126;24.752;2023-06-10T07:37:05;99033.28;;;26.91;54.53
65175;BME280;51761;42.126;24.752;2023-06-10T07:39:30;99057.31;;;26.75;54.70
65175;BME280;51761;42.126;24.752;2023-06-10T07:41:56;99062.16;;;26.93;54.71
65175;BME280;51761;42.126;24.752;2023-06-10T07:44:23;99042.31;;;26.50;55.63
65175;BME280;51761;42.126;24.752;2023-06-10T07:46:49;99067.34;;;26.50;56.34
65175;BME280;51761;42.126;24.752;2023-06-10T07:49:14;99050.44;;;26.46;56.05
65175;BME280;51761;42.126;24.752;2023-06-10T07:51:40;99057.34;;;26.56;54.92
65175;BME280;51761;42.126;24.752;2023-06-10T07:54:05;99050.84;;;27.00;55.49
65175;BME280;51761;42.126;24.752;2023-06-10T07:56:31;99061.63;;;27.77;53.28
65175;BME280;51761;42.126;24.752;2023-06-10T07:58:57;99061.75;;;28.31;50.72
65175;BME280;51761;42.126;24.752;2023-06-10T08:01:23;99047.19;;;28.16;50.14
65175;BME280;51761;42.126;24.752;2023-06-10T08:03:49;99067.69;;;28.33;49.82
65175;BME280;51761;42.126;24.752;2023-06-10T08:06:15;99069.47;;;28.36;47.67
65175;BME280;51761;42.126;24.752;2023-06-10T08:08:42;99054.53;;;28.38;49.00
65175;BME280;51761;42.126;24.752;2023-06-10T08:11:10;99058.38;;;29.42;47.62
65175;BME280;51761;42.126;24.752;2023-06-10T08:13:36;99068.78;;;31.71;42.63
65175;BME280;51761;42.126;24.752;2023-06-10T08:16:01;99061.28;;;32.30;40.88
65175;BME280;51761;42.126;24.752;2023-06-10T08:18:27;99050.09;;;32.66;37.54
65175;BME280;51761;42.126;24.752;2023-06-10T08:20:52;99050.19;;;32.83;37.70
65175;BME280;51761;42.126;24.752;2023-06-10T08:23:18;99054.25;;;32.80;38.97
65175;BME280;51761;42.126;24.752;2023-06-10T08:25:44;99055.31;;;32.28;40.02
65175;BME280;51761;42.126;24.752;2023-06-10T08:28:10;99056.31;;;32.23;40.35
65175;BME280;51761;42.126;24.752;2023-06-10T08:30:35;99037.16;;;31.88;39.60
65175;BME280;51761;42.126;24.752;2023-06-10T08:33:01;99036.72;;;31.15;40.05
65175;BME280;51761;42.126;24.752;2023-06-10T08:35:26;99053.41;;;30.64;41.41
65175;BME280;51761;42.126;24.752;2023-06-10T08:37:52;99026.50;;;30.77;41.02
65175;BME280;51761;42.126;24.752;2023-06-10T08:40:17;99049.97;;;32.10;39.02
65175;BME280;51761;42.126;24.752;2023-06-10T08:42:48;99038.16;;;32.30;39.92
65175;BME280;51761;42.126;24.752;2023-06-10T08:45:17;99045.75;;;32.82;38.60
65175;BME280;51761;42.126;24.752;2023-06-10T08:47:45;99047.41;;;33.41;36.78
65175;BME280;51761;42.126;24.752;2023-06-10T08:50:11;99039.63;;;33.27;36.17
65175;BME280;51761;42.126;24.752;2023-06-10T08:52:42;99007.59;;;33.00;37.58
65175;BME280;51761;42.126;24.752;2023-06-10T08:55:14;99033.94;;;33.12;37.67
65175;BME280;51761;42.126;24.752;2023-06-10T08:57:41;99039.97;;;33.31;34.74
65175;BME280;51761;42.126;24.752;2023-06-10T09:00:08;99026.88;;;34.15;34.53
65175;BME280;51761;42.126;24.752;2023-06-10T09:02:33;99032.50;;;34.13;34.80
65175;BME280;51761;42.126;24.752;2023-06-10T09:05:02;99024.31;;;33.34;36.92
65175;BME280;51761;42.126;24.752;2023-06-10T09:07:30;99025.25;;;33.53;35.72
65175;BME280;51761;42.126;24.752;2023-06-10T09:09:57;99003.38;;;33.43;34.08
65175;BME280;51761;42.126;24.752;2023-06-10T09:12:23;99014.50;;;33.29;34.28
65175;BME280;51761;42.126;24.752;2023-06-10T09:14:48;99018.72;;;32.55;32.79
65175;BME280;51761;42.126;24.752;2023-06-10T09:17:14;98976.16;;;32.24;33.42
65175;BME280;51761;42.126;24.752;2023-06-10T09:19:41;99019.75;;;32.03;34.85
65175;BME280;51761;42.126;24.752;2023-06-10T09:22:07;99002.53;;;31.81;35.06
65175;BME280;51761;42.126;24.752;2023-06-10T09:24:33;99006.47;;;31.46;35.27
65175;BME280;51761;42.126;24.752;2023-06-10T09:27:04;99009.22;;;31.21;34.87
65175;BME280;51761;42.126;24.752;2023-06-10T09:29:30;98999.16;;;31.52;35.80
65175;BME280;51761;42.126;24.752;2023-06-10T09:31:55;99000.91;;;31.40;35.15
65175;BME280;51761;42.126;24.752;2023-06-10T09:34:25;98998.06;;;31.25;37.54
65175;BME280;51761;42.126;24.752;2023-06-10T09:36:51;98981.84;;;31.45;37.11
65175;BME280;51761;42.126;24.752;2023-06-10T09:39:18;99004.50;;;31.56;36.87
65175;BME280;51761;42.126;24.752;2023-06-10T09:41:45;98989.53;;;31.42;35.73
65175;BME280;51761;42.126;24.752;2023-06-10T09:44:18;99009.47;;;31.85;34.91
65175;BME280;51761;42.126;24.752;2023-06-10T09:46:50;99001.41;;;31.76;33.43
65175;BME280;51761;42.126;24.752;2023-06-10T09:49:20;99013.06;;;31.93;33.90
65175;BME280;51761;42.126;24.752;2023-06-10T09:51:52;99004.91;;;31.67;33.65
65175;BME280;51761;42.126;24.752;2023-06-10T09:54:18;98977.53;;;32.23;33.24
65175;BME280;51761;42.126;24.752;2023-06-10T09:56:47;98991.69;;;31.96;36.08
65175;BME280;51761;42.126;24.752;2023-06-10T09:59:12;99012.03;;;32.21;34.28
65175;BME280;51761;42.126;24.752;2023-06-10T10:01:38;99006.28;;;31.44;38.99
65175;BME280;51761;42.126;24.752;2023-06-10T10:04:03;99012.84;;;30.62;41.92
65175;BME280;51761;42.126;24.752;2023-06-10T10:06:30;99004.38;;;30.57;42.94
65175;BME280;51761;42.126;24.752;2023-06-10T10:08:55;98999.78;;;30.76;42.61
65175;BME280;51761;42.126;24.752;2023-06-10T10:11:21;99011.53;;;31.15;40.84
65175;BME280;51761;42.126;24.752;2023-06-10T10:13:50;99015.28;;;30.43;41.83
65175;BME280;51761;42.126;24.752;2023-06-10T10:16:30;99006.66;;;29.93;42.97
65175;BME280;51761;42.126;24.752;2023-06-10T10:19:08;99002.66;;;29.25;44.11
65175;BME280;51761;42.126;24.752;2023-06-10T10:21:41;99002.44;;;29.23;45.64
65175;BME280;51761;42.126;24.752;2023-06-10T10:26:39;98990.50;;;29.19;45.02
65175;BME280;51761;42.126;24.752;2023-06-10T10:31:57;98998.81;;;29.93;43.92
65175;BME280;51761;42.126;24.752;2023-06-10T10:34:42;98997.38;;;30.15;43.90
65175;BME280;51761;42.126;24.752;2023-06-10T10:37:11;98993.53;;;29.77;43.88
65175;BME280;51761;42.126;24.752;2023-06-10T10:39:37;99001.91;;;30.03;44.27
65175;BME280;51761;42.126;24.752;2023-06-10T10:42:04;98998.06;;;30.00;44.73
65175;BME280;51761;42.126;24.752;2023-06-10T10:44:31;98989.66;;;30.02;43.74
65175;BME280;51761;42.126;24.752;2023-06-10T10:47:02;98995.84;;;30.14;43.86
65175;BME280;51761;42.126;24.752;2023-06-10T10:49:30;98972.41;;;29.67;45.12
65175;BME280;51761;42.126;24.752;2023-06-10T10:52:00;98975.50;;;29.76;42.08
65175;BME280;51761;42.126;24.752;2023-06-10T10:54:30;98991.28;;;29.90;40.85
65175;BME280;51761;42.126;24.752;2023-06-10T10:57:09;98996.66;;;29.79;43.04
65175;BME280;51761;42.126;24.752;2023-06-10T10:59:57;98992.63;;;29.82;43.33
65175;BME280;51761;42.126;24.752;2023-06-10T11:05:07;98988.84;;;29.94;40.17
65175;BME280;51761;42.126;24.752;2023-06-10T11:07:34;98979.88;;;30.05;39.81
65175;BME280;51761;42.126;24.752;2023-06-10T11:15:06;98973.94;;;30.26;38.35
65175;BME280;51761;42.126;24.752;2023-06-10T11:17:32;98976.28;;;30.35;38.45
65175;BME280;51761;42.126;24.752;2023-06-10T11:19:58;98973.38;;;30.20;40.13
65175;BME280;51761;42.126;24.752;2023-06-10T11:22:24;98969.31;;;30.08;42.28
65175;BME280;51761;42.126;24.752;2023-06-10T11:24:50;98968.22;;;29.75;41.69
65175;BME280;51761;42.126;24.752;2023-06-10T11:27:23;98933.66;;;29.75;42.05
65175;BME280;51761;42.126;24.752;2023-06-10T11:32:23;98965.47;;;30.05;41.40
65175;BME280;51761;42.126;24.752;2023-06-10T11:34:53;98967.84;;;29.86;43.45
65175;BME280;51761;42.126;24.752;2023-06-10T11:37:19;98962.25;;;29.73;43.99
65175;BME280;51761;42.126;24.752;2023-06-10T11:39:44;98944.56;;;29.62;44.07
65175;BME280;51761;42.126;24.752;2023-06-10T11:42:10;98961.06;;;30.12;42.81
65175;BME280;51761;42.126;24.752;2023-06-10T11:44:36;98952.50;;;30.57;41.69
65175;BME280;51761;42.126;24.752;2023-06-10T11:47:04;98952.25;;;30.32;41.39
65175;BME280;51761;42.126;24.752;2023-06-10T11:49:29;98943.44;;;30.30;41.39
65175;BME280;51761;42.126;24.752;2023-06-10T11:51:55;98944.41;;;30.48;41.89
65175;BME280;51761;42.126;24.752;2023-06-10T11:54:21;98941.94;;;30.67;41.63
65175;BME280;51761;42.126;24.752;2023-06-10T11:56:47;98944.59;;;30.35;39.90
65175;BME280;51761;42.126;24.752;2023-06-10T11:59:13;98936.88;;;30.30;40.63
65175;BME280;51761;42.126;24.752;2023-06-10T12:01:44;98936.16;;;30.37;42.82
65175;BME280;51761;42.126;24.752;2023-06-10T12:04:12;98931.91;;;30.38;40.05
65175;BME280;51761;42.126;24.752;2023-06-10T12:09:22;98923.47;;;31.00;40.54
65175;BME280;51761;42.126;24.752;2023-06-10T12:11:59;98936.31;;;31.13;37.73
65175;BME280;51761;42.126;24.752;2023-06-10T12:14:50;98933.09;;;30.72;41.65
65175;BME280;51761;42.126;24.752;2023-06-10T12:17:42;98924.03;;;30.98;39.71
65175;BME280;51761;42.126;24.752;2023-06-10T12:20:23;98915.41;;;30.83;41.00
65175;BME280;51761;42.126;24.752;2023-06-10T12:22:50;98905.41;;;30.47;41.22
65175;BME280;51761;42.126;24.752;2023-06-10T12:25:15;98925.38;;;30.45;42.16
65175;BME280;51761;42.126;24.752;2023-06-10T12:27:50;98905.19;;;30.15;41.98
65175;BME280;51761;42.126;24.752;2023-06-10T12:30:23;98916.75;;;29.72;41.35
65175;BME280;51761;42.126;24.752;2023-06-10T12:32:50;98925.41;;;29.29;42.26
65175;BME280;51761;42.126;24.752;2023-06-10T12:35:26;98921.28;;;29.17;42.94
65175;BME280;51761;42.126;24.752;2023-06-10T12:38:03;98912.19;;;28.98;41.92
65175;BME280;51761;42.126;24.752;2023-06-10T12:40:37;98919.91;;;28.83;44.10
65175;BME280;51761;42.126;24.752;2023-06-10T12:43:05;98913.66;;;28.92;41.86
65175;BME280;51761;42.126;24.752;2023-06-10T12:45:33;98905.09;;;28.99;42.11
65175;BME280;51761;42.126;24.752;2023-06-10T12:48:24;98890.78;;;28.86;41.80
65175;BME280;51761;42.126;24.752;2023-06-10T12:50:57;98898.75;;;28.93;42.32
65175;BME280;51761;42.126;24.752;2023-06-10T12:53:24;98893.34;;;28.90;42.83
65175;BME280;51761;42.126;24.752;2023-06-10T12:55:52;98859.28;;;28.73;43.05
65175;BME280;51761;42.126;24.752;2023-06-10T12:58:19;98883.09;;;28.81;43.28
65175;BME280;51761;42.126;24.752;2023-06-10T13:00:45;98889.56;;;28.74;43.14
65175;BME280;51761;42.126;24.752;2023-06-10T13:03:11;98872.19;;;28.80;44.04
65175;BME280;51761;42.126;24.752;2023-06-10T13:05:36;98871.50;;;29.30;42.27
65175;BME280;51761;42.126;24.752;2023-06-10T13:08:07;98866.88;;;29.69;41.34
65175;BME280;51761;42.126;24.752;2023-06-10T13:10:33;98879.53;;;29.66;40.67
65175;BME280;51761;42.126;24.752;2023-06-10T13:13:00;98888.19;;;29.81;41.46